createdAt,value
2019-03-09T00:00:31.520Z,5.33
2019-03-09T00:03:02.316Z,6.17
2019-03-09T00:05:38.692Z,4.67
2019-03-09T00:08:11.099Z,4.83
2019-03-09T00:10:44.628Z,4.80
2019-03-09T00:13:19.412Z,5.43
2019-03-09T00:15:50.193Z,5.00
2019-03-09T00:18:27.448Z,4.87
2019-03-09T00:20:58.342Z,4.43
2019-03-09T00:23:49.077Z,4.07
2019-03-09T00:26:42.218Z,4.33
2019-03-09T00:29:20.800Z,4.00
2019-03-09T00:31:57.904Z,4.03
2019-03-09T00:34:28.731Z,4.33
2019-03-09T00:37:04.496Z,4.30
2019-03-09T00:39:35.297Z,4.73
2019-03-09T00:42:06.234Z,3.70
2019-03-09T00:44:37.055Z,3.63
2019-03-09T00:47:08.127Z,3.30
2019-03-09T00:49:38.924Z,3.37
2019-03-09T00:52:15.522Z,3.50
2019-03-09T00:54:46.288Z,3.47
2019-03-09T00:57:19.108Z,3.60
2019-03-09T00:59:51.834Z,3.03
2019-03-09T01:02:22.588Z,3.23
2019-03-09T01:04:54.800Z,2.63
2019-03-09T01:07:25.694Z,3.17
2019-03-09T01:09:56.573Z,2.80
2019-03-09T01:12:28.797Z,3.10
2019-03-09T01:14:59.681Z,3.23
2019-03-09T01:17:30.485Z,3.60
2019-03-09T01:20:01.176Z,2.63
2019-03-09T01:22:32.052Z,2.73
2019-03-09T01:25:02.748Z,2.90
2019-03-09T01:27:33.533Z,3.30
2019-03-09T01:30:10.494Z,3.00
2019-03-09T01:32:41.387Z,3.10
2019-03-09T01:35:12.304Z,2.40
2019-03-09T01:37:43.086Z,2.70
2019-03-09T01:40:14.146Z,4.00
2019-03-09T01:42:44.968Z,2.87
2019-03-09T01:45:16.187Z,3.77
2019-03-09T01:47:48.500Z,2.20
2019-03-09T01:50:19.309Z,3.57
2019-03-09T01:52:50.084Z,2.40
2019-03-09T01:55:25.188Z,2.97
2019-03-09T01:57:55.996Z,2.97
2019-03-09T02:00:28.157Z,2.83
2019-03-09T02:02:59.032Z,2.70
2019-03-09T02:05:29.907Z,2.57
2019-03-09T02:08:00.684Z,2.77
2019-03-09T02:10:33.028Z,2.23
2019-03-09T02:13:08.569Z,2.73
2019-03-09T02:15:39.672Z,2.20
2019-03-09T02:18:10.458Z,2.77
2019-03-09T02:20:45.276Z,2.50
2019-03-09T02:23:16.054Z,3.20
2019-03-09T02:25:46.836Z,2.40
2019-03-09T02:28:17.512Z,2.27
2019-03-09T02:30:50.782Z,2.33
2019-03-09T02:33:21.509Z,2.07
2019-03-09T02:35:52.366Z,2.43
2019-03-09T02:38:30.604Z,2.90
2019-03-09T02:41:01.414Z,2.20
2019-03-09T02:43:32.146Z,2.40
2019-03-09T02:46:03.001Z,2.33
2019-03-09T02:48:33.806Z,1.77
2019-03-09T02:51:08.373Z,2.83
2019-03-09T02:53:39.388Z,1.77
2019-03-09T02:56:10.181Z,2.00
2019-03-09T02:58:40.941Z,2.17
2019-03-09T03:01:27.352Z,2.13
2019-03-09T03:03:58.162Z,2.40
2019-03-09T03:06:29.215Z,2.10
2019-03-09T03:09:09.916Z,1.93
2019-03-09T03:11:42.102Z,2.03
2019-03-09T03:14:12.876Z,2.73
2019-03-09T03:16:47.119Z,2.90
2019-03-09T03:19:18.024Z,2.17
2019-03-09T03:21:48.910Z,2.30
2019-03-09T03:24:19.694Z,2.43
2019-03-09T03:26:50.487Z,1.80
2019-03-09T03:29:21.297Z,2.00
2019-03-09T03:32:01.046Z,2.00
2019-03-09T03:34:31.918Z,2.50
2019-03-09T03:37:02.703Z,1.80
2019-03-09T03:39:33.511Z,1.93
2019-03-09T03:42:04.329Z,1.80
2019-03-09T03:44:46.969Z,2.07
2019-03-09T03:47:18.233Z,2.00
2019-03-09T03:49:49.340Z,2.53
2019-03-09T03:52:21.568Z,1.80
2019-03-09T03:54:52.389Z,1.93
2019-03-09T03:57:23.290Z,2.37
2019-03-09T03:59:54.380Z,2.37
2019-03-09T04:02:25.208Z,2.20
2019-03-09T04:04:56.589Z,2.53
2019-03-09T04:07:27.796Z,2.23
2019-03-09T04:10:04.567Z,1.93
2019-03-09T04:12:35.450Z,1.80
2019-03-09T04:15:06.842Z,2.00
2019-03-09T04:17:39.078Z,2.10
2019-03-09T04:20:11.039Z,3.13
2019-03-09T04:22:45.335Z,2.73
2019-03-09T04:25:16.014Z,2.43
2019-03-09T04:27:47.929Z,2.40
2019-03-09T04:30:21.541Z,2.40
2019-03-09T04:32:52.878Z,2.50
2019-03-09T04:35:23.705Z,2.13
2019-03-09T04:37:55.734Z,3.00
2019-03-09T04:40:26.772Z,2.20
2019-03-09T04:42:57.550Z,2.10
2019-03-09T04:45:31.995Z,2.20
2019-03-09T04:48:02.767Z,2.20
2019-03-09T04:50:33.871Z,1.87
2019-03-09T04:53:11.822Z,1.80
2019-03-09T04:55:42.568Z,2.67
2019-03-09T04:58:13.329Z,3.07
2019-03-09T05:00:44.158Z,2.50
2019-03-09T05:03:14.881Z,3.30
2019-03-09T05:05:45.702Z,1.93
2019-03-09T05:09:05.666Z,2.20
2019-03-09T05:11:37.094Z,2.47
2019-03-09T05:14:15.008Z,2.03
2019-03-09T05:16:46.159Z,1.90
2019-03-09T05:19:16.930Z,2.47
2019-03-09T05:21:47.822Z,2.10
2019-03-09T05:24:31.092Z,2.13
2019-03-09T05:27:01.919Z,1.60
2019-03-09T05:29:32.698Z,1.80
2019-03-09T05:32:04.728Z,2.50
2019-03-09T05:34:38.078Z,2.53
2019-03-09T05:37:08.888Z,2.50
2019-03-09T05:39:39.645Z,2.97
2019-03-09T05:42:14.092Z,2.03
2019-03-09T05:44:45.024Z,2.77
2019-03-09T05:47:15.825Z,2.90
2019-03-09T05:49:46.662Z,2.30
2019-03-09T05:52:39.245Z,2.57
2019-03-09T05:55:15.879Z,2.93
2019-03-09T05:57:48.006Z,3.10
2019-03-09T06:00:20.302Z,2.63
2019-03-09T06:02:51.086Z,2.47
2019-03-09T06:05:36.020Z,1.90
2019-03-09T06:08:08.783Z,2.20
2019-03-09T06:10:39.588Z,2.30
2019-03-09T06:13:10.427Z,1.87
2019-03-09T06:15:41.390Z,2.73
2019-03-09T06:18:12.193Z,2.50
2019-03-09T06:20:43.080Z,3.00
2019-03-09T06:23:13.869Z,2.87
2019-03-09T06:25:47.270Z,2.47
2019-03-09T06:28:18.046Z,3.40
2019-03-09T06:30:51.136Z,2.93
2019-03-09T06:33:28.881Z,2.33
2019-03-09T06:36:44.804Z,2.87
2019-03-09T06:39:27.211Z,1.77
2019-03-09T06:42:36.773Z,2.30
2019-03-09T06:45:10.707Z,2.53
2019-03-09T06:47:43.563Z,2.40
2019-03-09T06:50:22.101Z,3.03
2019-03-09T06:52:52.952Z,2.27
2019-03-09T06:55:35.073Z,1.97
2019-03-09T06:58:06.152Z,1.70
2019-03-09T07:00:40.655Z,1.80
2019-03-09T07:03:13.786Z,1.60
2019-03-09T07:05:44.608Z,1.80
2019-03-09T07:08:15.387Z,1.73
2019-03-09T07:10:46.150Z,2.27
2019-03-09T07:13:17.153Z,1.77
2019-03-09T07:15:48.394Z,1.70
2019-03-09T07:18:32.207Z,2.03
2019-03-09T07:21:04.028Z,1.50
2019-03-09T07:23:34.950Z,1.70
2019-03-09T07:26:09.599Z,1.63
2019-03-09T07:28:41.474Z,1.60
2019-03-09T07:31:12.795Z,1.73
2019-03-09T07:33:45.285Z,2.10
2019-03-09T07:36:17.606Z,1.50
2019-03-09T07:38:49.803Z,1.53
2019-03-09T07:41:25.428Z,1.43
2019-03-09T07:43:56.348Z,1.57
2019-03-09T07:46:27.354Z,1.97
2019-03-09T07:48:58.158Z,1.40
2019-03-09T07:51:30.085Z,2.10
2019-03-09T07:54:02.784Z,1.33
2019-03-09T07:56:33.550Z,1.07
2019-03-09T07:59:06.549Z,0.77
2019-03-09T08:01:37.850Z,0.70
2019-03-09T08:04:09.530Z,0.80
2019-03-09T08:06:40.219Z,0.77
2019-03-09T08:09:11.759Z,0.80
2019-03-09T08:11:45.634Z,0.77
2019-03-09T08:14:18.315Z,0.60
2019-03-09T08:16:50.959Z,0.80
2019-03-09T08:19:22.252Z,1.10
2019-03-09T08:21:55.636Z,0.63
2019-03-09T08:24:31.282Z,1.00
2019-03-09T08:27:02.229Z,0.80
2019-03-09T08:29:47.097Z,1.00
2019-03-09T08:32:41.666Z,0.80
2019-03-09T08:35:29.414Z,1.10
2019-03-09T08:38:03.334Z,0.50
2019-03-09T08:40:43.825Z,1.07
2019-03-09T08:43:25.651Z,0.70
2019-03-09T08:45:56.795Z,1.10
2019-03-09T08:48:27.589Z,0.60
2019-03-09T08:50:58.395Z,0.90
2019-03-09T08:53:32.312Z,0.80
2019-03-09T08:56:05.570Z,0.53
2019-03-09T08:59:05.602Z,0.47
2019-03-09T09:01:42.963Z,0.57
2019-03-09T09:04:14.593Z,0.53
2019-03-09T09:06:47.573Z,1.07
2019-03-09T09:09:18.413Z,1.27
2019-03-09T09:11:49.350Z,0.90
2019-03-09T09:14:35.792Z,0.80
2019-03-09T09:17:18.045Z,0.63
2019-03-09T09:19:53.842Z,1.20
2019-03-09T09:22:24.757Z,0.90
2019-03-09T09:24:55.514Z,1.10
2019-03-09T09:27:28.459Z,0.80
2019-03-09T09:30:01.976Z,1.00
2019-03-09T09:32:36.561Z,1.17
2019-03-09T09:35:11.898Z,1.03
2019-03-09T09:37:44.570Z,1.10
2019-03-09T09:40:19.887Z,1.50
2019-03-09T09:42:54.285Z,1.80
2019-03-09T09:45:27.047Z,1.23
2019-03-09T09:48:01.562Z,1.00
2019-03-09T09:50:32.274Z,1.00
2019-03-09T09:53:05.423Z,1.07
2019-03-09T09:55:38.935Z,0.90
2019-03-09T09:58:11.268Z,1.23
2019-03-09T10:00:43.588Z,1.00
2019-03-09T10:03:14.379Z,0.70
2019-03-09T10:05:50.398Z,1.10
2019-03-09T10:08:23.497Z,0.90
2019-03-09T10:10:54.368Z,0.80
2019-03-09T10:13:27.343Z,0.93
2019-03-09T10:15:58.061Z,1.10
2019-03-09T10:18:31.043Z,1.00
2019-03-09T10:21:01.937Z,1.07
2019-03-09T10:23:40.088Z,1.00
2019-03-09T10:26:10.833Z,1.10
2019-03-09T10:28:41.840Z,1.10
2019-03-09T10:31:15.812Z,0.90
2019-03-09T10:33:50.106Z,1.10
2019-03-09T10:36:20.845Z,1.30
2019-03-09T10:38:51.920Z,1.10
2019-03-09T10:41:25.157Z,1.10
2019-03-09T10:43:58.066Z,1.43
2019-03-09T10:46:29.735Z,1.20
2019-03-09T10:49:00.664Z,1.67
2019-03-09T10:51:42.389Z,1.37
2019-03-09T10:54:13.945Z,1.70
2019-03-09T10:56:55.215Z,1.30
2019-03-09T10:59:47.435Z,1.23
2019-03-09T11:02:18.933Z,1.23
2019-03-09T11:07:47.485Z,1.00
2019-03-09T11:10:20.624Z,1.17
2019-03-09T11:12:54.156Z,1.43
2019-03-09T11:15:26.656Z,1.10
2019-03-09T11:17:57.721Z,1.40
2019-03-09T11:20:30.999Z,1.80
2019-03-09T11:23:01.740Z,1.63
2019-03-09T11:25:32.639Z,1.03
2019-03-09T11:28:14.208Z,1.30
2019-03-09T11:30:48.800Z,1.60
2019-03-09T11:33:20.927Z,1.57
2019-03-09T11:35:56.642Z,1.53
2019-03-09T11:38:31.795Z,1.87
2019-03-09T11:41:02.575Z,1.57
2019-03-09T11:43:33.363Z,1.77
2019-03-09T11:46:04.110Z,2.90
2019-03-09T11:48:37.342Z,1.60
2019-03-09T11:51:09.358Z,1.53
2019-03-09T11:53:42.683Z,1.33
2019-03-09T11:56:25.128Z,1.30
2019-03-09T11:58:56.042Z,1.23
2019-03-09T12:01:28.078Z,1.37
2019-03-09T12:04:02.242Z,1.30
2019-03-09T12:06:47.178Z,1.00
2019-03-09T12:09:21.876Z,1.70
2019-03-09T12:12:02.196Z,1.43
2019-03-09T12:14:33.986Z,1.13
2019-03-09T12:17:12.350Z,1.40
2019-03-09T12:19:44.890Z,1.67
2019-03-09T12:22:15.988Z,1.50
2019-03-09T12:24:54.360Z,1.20
2019-03-09T12:27:25.588Z,1.43
2019-03-09T12:29:56.374Z,1.20
2019-03-09T12:32:31.298Z,1.20
2019-03-09T12:35:20.386Z,1.50
2019-03-09T12:37:51.382Z,1.10
2019-03-09T12:40:22.429Z,1.60
2019-03-09T12:42:55.245Z,1.30
2019-03-09T12:45:30.828Z,1.20
2019-03-09T12:48:01.802Z,1.60
2019-03-09T12:50:37.206Z,1.53
2019-03-09T12:53:09.511Z,1.77
2019-03-09T12:55:40.380Z,1.70
2019-03-09T12:58:12.230Z,1.40
2019-03-09T13:00:45.905Z,1.20
2019-03-09T13:03:16.693Z,1.60
2019-03-09T13:05:48.088Z,1.30
2019-03-09T13:08:20.446Z,1.07
2019-03-09T13:10:57.262Z,1.33
2019-03-09T13:13:33.003Z,1.67
2019-03-09T13:16:07.432Z,1.30
2019-03-09T13:18:40.722Z,1.50
2019-03-09T13:21:13.817Z,1.60
2019-03-09T13:23:44.567Z,1.30
2019-03-09T13:26:15.422Z,1.50
2019-03-09T13:28:46.120Z,1.40
2019-03-09T13:31:20.276Z,1.20
2019-03-09T13:33:50.994Z,1.07
2019-03-09T13:36:21.973Z,1.40
2019-03-09T13:38:52.687Z,1.57
2019-03-09T13:41:23.473Z,1.30
2019-03-09T13:43:54.318Z,1.50
2019-03-09T13:46:31.086Z,1.80
2019-03-09T13:49:02.111Z,1.50
2019-03-09T13:51:33.017Z,2.07
2019-03-09T13:54:06.426Z,1.70
2019-03-09T13:56:38.266Z,1.60
2019-03-09T13:59:10.975Z,1.80
2019-03-09T14:01:49.322Z,1.70
2019-03-09T14:04:22.424Z,1.60
2019-03-09T14:06:54.670Z,1.90
2019-03-09T14:09:34.103Z,1.50
2019-03-09T14:12:08.257Z,1.53
2019-03-09T14:14:41.280Z,1.40
2019-03-09T14:17:16.062Z,1.50
2019-03-09T14:19:46.884Z,1.60
2019-03-09T14:22:17.940Z,1.40
2019-03-09T14:24:48.995Z,2.03
2019-03-09T14:27:20.154Z,1.70
2019-03-09T14:29:51.259Z,1.80
2019-03-09T14:32:25.110Z,1.77
2019-03-09T14:34:55.840Z,1.53
2019-03-09T14:37:27.741Z,1.60
2019-03-09T14:39:58.846Z,1.70
2019-03-09T14:42:30.106Z,2.00
2019-03-09T14:45:08.342Z,1.67
2019-03-09T14:47:40.050Z,1.90
2019-03-09T14:50:11.879Z,1.40
2019-03-09T14:52:42.628Z,1.30
2019-03-09T14:55:14.687Z,1.67
2019-03-09T14:57:45.512Z,1.83
2019-03-09T15:00:20.245Z,1.50
2019-03-09T15:02:51.635Z,1.70
2019-03-09T15:05:33.748Z,1.60
2019-03-09T15:08:05.916Z,1.67
2019-03-09T15:10:39.697Z,1.70
2019-03-09T15:13:12.144Z,1.27
2019-03-09T15:15:45.908Z,1.33
2019-03-09T15:18:17.080Z,1.53
2019-03-09T15:20:55.501Z,1.10
2019-03-09T15:23:29.415Z,1.33
2019-03-09T15:26:02.004Z,0.90
2019-03-09T15:28:34.604Z,1.73
2019-03-09T15:31:22.166Z,1.20
2019-03-09T15:33:54.080Z,1.07
2019-03-09T15:36:26.773Z,0.70
2019-03-09T15:38:57.469Z,1.00
2019-03-09T15:41:30.102Z,0.93
2019-03-09T15:44:04.296Z,0.80
2019-03-09T15:46:41.240Z,0.93
2019-03-09T15:49:15.434Z,1.23
2019-03-09T15:51:48.829Z,1.33
2019-03-09T15:54:21.265Z,1.00
2019-03-09T15:56:52.398Z,0.90
2019-03-09T15:59:23.287Z,0.90
2019-03-09T16:01:54.380Z,1.00
2019-03-09T16:04:27.690Z,1.20
2019-03-09T16:07:13.950Z,1.10
2019-03-09T16:09:49.341Z,0.80
2019-03-09T16:12:25.519Z,0.90
2019-03-09T16:14:58.673Z,0.90
2019-03-09T16:17:30.915Z,0.80
2019-03-09T16:20:02.510Z,0.73
2019-03-09T16:22:39.817Z,0.87
2019-03-09T16:25:13.591Z,0.70
2019-03-09T16:27:44.593Z,0.70
2019-03-09T16:30:17.678Z,0.90
2019-03-09T16:32:48.681Z,0.97
2019-03-09T16:35:19.590Z,0.90
2019-03-09T16:37:53.311Z,0.97
2019-03-09T16:40:26.936Z,1.60
2019-03-09T16:42:58.144Z,1.40
2019-03-09T16:45:33.920Z,1.10
2019-03-09T16:48:05.077Z,0.83
2019-03-09T16:50:36.041Z,1.20
2019-03-09T16:53:06.839Z,1.40
2019-03-09T16:55:37.649Z,1.30
2019-03-09T16:58:09.609Z,1.33
2019-03-09T17:00:41.648Z,1.13
2019-03-09T17:03:15.082Z,1.30
2019-03-09T17:05:52.047Z,1.00
2019-03-09T17:08:23.031Z,1.30
2019-03-09T17:10:54.458Z,1.47
2019-03-09T17:13:25.375Z,1.13
2019-03-09T17:15:59.528Z,1.30
2019-03-09T17:18:34.392Z,1.20
2019-03-09T17:21:06.057Z,1.30
2019-03-09T17:23:37.642Z,0.83
2019-03-09T17:26:08.520Z,0.70
2019-03-09T17:28:39.612Z,1.30
2019-03-09T17:31:10.678Z,1.33
2019-03-09T17:33:45.432Z,1.40
2019-03-09T17:36:16.802Z,1.00
2019-03-09T17:38:48.197Z,0.93
2019-03-09T17:41:19.116Z,1.00
2019-03-09T17:43:52.108Z,1.07
2019-03-09T17:46:29.110Z,0.93
2019-03-09T17:49:16.139Z,1.40
2019-03-09T17:51:48.996Z,1.43
2019-03-09T17:54:22.680Z,1.13
2019-03-09T17:56:55.055Z,0.90
2019-03-09T17:59:29.649Z,0.97
2019-03-09T18:02:00.382Z,1.10
2019-03-09T18:04:42.919Z,1.00
2019-03-09T18:07:15.864Z,0.87
2019-03-09T18:09:48.081Z,1.03
2019-03-09T18:12:18.922Z,0.97
2019-03-09T18:14:49.907Z,1.30
2019-03-09T18:17:20.684Z,1.10
2019-03-09T18:19:55.172Z,1.03
2019-03-09T18:22:26.119Z,1.20
2019-03-09T18:24:57.332Z,1.10
2019-03-09T18:27:32.222Z,1.13
2019-03-09T18:30:03.118Z,1.67
2019-03-09T18:32:37.514Z,0.83
2019-03-09T18:35:09.711Z,1.60
2019-03-09T18:37:46.678Z,1.17
2019-03-09T18:40:25.413Z,1.20
2019-03-09T18:42:57.389Z,1.30
2019-03-09T18:45:34.106Z,1.33
2019-03-09T18:48:06.530Z,1.30
2019-03-09T18:50:42.347Z,1.27
2019-03-09T18:53:13.530Z,1.40
2019-03-09T18:55:46.603Z,1.37
2019-03-09T18:58:19.874Z,1.50
2019-03-09T19:00:58.527Z,1.85
2019-03-09T19:03:32.894Z,1.70
2019-03-09T19:06:03.711Z,1.53
2019-03-09T19:08:38.004Z,1.60
2019-03-09T19:11:09.420Z,1.87
2019-03-09T19:13:40.559Z,1.20
2019-03-09T19:16:14.103Z,0.97
2019-03-09T19:18:45.370Z,2.20
2019-03-09T19:21:16.261Z,0.77
2019-03-09T19:23:50.364Z,1.23
2019-03-09T19:26:23.663Z,1.40
2019-03-09T19:28:56.160Z,1.03
2019-03-09T19:31:29.790Z,1.20
2019-03-09T19:34:03.839Z,1.23
2019-03-09T19:36:44.795Z,1.13
2019-03-09T19:39:23.100Z,1.00
2019-03-09T19:41:54.295Z,0.93
2019-03-09T19:44:28.038Z,0.87
2019-03-09T19:47:00.689Z,1.00
2019-03-09T19:49:36.311Z,0.90
2019-03-09T19:52:29.299Z,1.00
2019-03-09T19:55:02.379Z,0.57
2019-03-09T19:57:38.389Z,0.80
2019-03-09T20:00:14.792Z,0.70
2019-03-09T20:03:00.889Z,0.57
2019-03-09T20:05:34.606Z,1.43
2019-03-09T20:08:08.397Z,1.17
2019-03-09T20:10:39.462Z,1.13
2019-03-09T20:13:20.525Z,1.23
2019-03-09T20:15:54.268Z,0.63
2019-03-09T20:18:25.986Z,0.73
2019-03-09T20:20:57.239Z,0.63
2019-03-09T20:23:35.756Z,0.90
2019-03-09T20:26:06.501Z,1.13
2019-03-09T20:28:37.357Z,0.90
2019-03-09T20:31:10.022Z,0.70
2019-03-09T20:33:41.369Z,0.80
2019-03-09T20:36:13.776Z,1.00
2019-03-09T20:38:47.237Z,0.80
2019-03-09T20:41:20.555Z,1.50
2019-03-09T20:43:54.596Z,1.63
2019-03-09T20:46:41.656Z,0.80
2019-03-09T20:49:07.416Z,0.70
2019-03-09T20:51:50.603Z,1.13
2019-03-09T20:54:24.094Z,1.10
2019-03-09T20:56:58.000Z,1.13
2019-03-09T20:59:44.739Z,1.40
2019-03-09T21:02:17.537Z,1.03
2019-03-09T21:04:48.388Z,1.40
2019-03-09T21:07:19.921Z,1.10
2019-03-09T21:09:53.245Z,1.20
2019-03-09T21:12:26.754Z,1.00
2019-03-09T21:14:59.240Z,1.30
2019-03-09T21:17:33.927Z,1.40
2019-03-09T21:20:09.083Z,1.27
2019-03-09T21:22:43.069Z,0.90
2019-03-09T21:25:16.543Z,1.17
2019-03-09T21:27:50.737Z,1.00
2019-03-09T21:30:25.857Z,1.10
2019-03-09T21:33:06.235Z,1.20
2019-03-09T21:35:38.931Z,1.40
2019-03-09T21:38:13.767Z,1.67
2019-03-09T21:40:49.620Z,0.97
2019-03-09T21:43:27.321Z,1.30
2019-03-09T21:45:59.298Z,1.37
2019-03-09T21:48:31.784Z,1.60
2019-03-09T21:51:06.702Z,1.97
2019-03-09T21:53:37.447Z,1.63
2019-03-09T21:56:15.742Z,1.60
2019-03-09T21:58:46.760Z,1.40
2019-03-09T22:01:20.535Z,1.53
2019-03-09T22:03:53.275Z,1.30
2019-03-09T22:06:27.000Z,1.40
2019-03-09T22:08:58.237Z,1.50
2019-03-09T22:11:29.015Z,1.73
2019-03-09T22:13:59.734Z,1.17
2019-03-09T22:16:33.963Z,1.50
2019-03-09T22:19:08.438Z,1.40
2019-03-09T22:21:39.209Z,1.00
2019-03-09T22:24:10.313Z,1.10
2019-03-09T22:27:09.128Z,1.30
2019-03-09T22:29:54.167Z,1.13
2019-03-09T22:32:54.909Z,1.30
2019-03-09T22:35:36.254Z,1.37
2019-03-09T22:38:14.979Z,1.60
2019-03-09T22:40:46.384Z,1.03
2019-03-09T22:43:32.053Z,1.60
2019-03-09T22:46:11.939Z,1.30
2019-03-09T22:48:59.110Z,1.37
2019-03-09T22:51:33.292Z,0.87
2019-03-09T22:54:05.859Z,1.87
2019-03-09T22:56:36.907Z,1.40
2019-03-09T22:59:10.041Z,1.23
2019-03-09T23:01:41.280Z,1.67
2019-03-09T23:04:12.147Z,1.50
2019-03-09T23:06:43.142Z,1.87
2019-03-09T23:09:14.387Z,1.77
2019-03-09T23:11:48.756Z,1.80
2019-03-09T23:14:30.176Z,1.43
2019-03-09T23:17:06.282Z,1.93
2019-03-09T23:19:55.837Z,1.70
2019-03-09T23:22:36.263Z,1.83
2019-03-09T23:25:12.694Z,2.07
2019-03-09T23:30:34.090Z,1.70
2019-03-09T23:33:18.075Z,1.90
2019-03-09T23:35:52.262Z,2.00
2019-03-09T23:38:27.242Z,1.73
2019-03-09T23:41:02.378Z,2.07
2019-03-09T23:43:33.136Z,2.63
2019-03-09T23:46:03.921Z,1.93
2019-03-09T23:48:46.555Z,1.60
2019-03-09T23:51:20.729Z,2.00
2019-03-09T23:53:55.373Z,1.70
2019-03-09T23:56:27.945Z,2.10
2019-03-09T23:58:58.734Z,2.27
